HER weather

Heraklion International Nikos Kazantzakis Airport
Heraklion, Irakleion, Greece

Public forecast

Using degrees Celsius for public forecast. Weather courtesy of forecast.io.

Current aviation weather report (METAR) for Heraklion International Nikos Kazantzakis Airport

Retrieved 2019/10/15 08:20 UTC (8 minutes ago):

LGIR 150820Z 30005KT 9999 FEW025 22/17 Q1018 NOSIG

Aviation forecast (TAF) for Heraklion International Nikos Kazantzakis Airport

Retrieved 2019/10/15 06:12 UTC (2 hours ago):

TAF LGIR 150500Z 1506/1606 VRB03KT 9999 FEW020 TEMPO 1509/1518 32010KT